createdAt,value
2016-04-15T00:00:13.613Z,1008.95
2016-04-15T00:01:13.616Z,1008.94
2016-04-15T00:02:13.634Z,1008.92
2016-04-15T00:03:13.652Z,1008.89
2016-04-15T00:04:26.405Z,1008.89
2016-04-15T00:05:13.689Z,1008.88
2016-04-15T00:06:13.707Z,1008.86
2016-04-15T00:07:14.320Z,1008.85
2016-04-15T00:08:14.337Z,1008.87
2016-04-15T00:09:26.481Z,1008.83
2016-04-15T00:10:13.765Z,1008.78
2016-04-15T00:11:13.784Z,1008.83
2016-04-15T00:12:26.537Z,1008.8
2016-04-15T00:13:39.492Z,1008.77
2016-04-15T00:14:13.823Z,1008.79
2016-04-15T00:15:13.841Z,1008.78
2016-04-15T00:16:14.469Z,1008.75
2016-04-15T00:17:13.894Z,1008.74
2016-04-15T00:18:26.630Z,1008.75
2016-04-15T00:19:13.914Z,1008.74
2016-04-15T00:20:33.151Z,1008.76
2016-04-15T00:21:14.544Z,1008.71
2016-04-15T00:23:29.127Z,1008.72
2016-04-15T00:24:29.146Z,1008.72
2016-04-15T00:25:29.149Z,1008.73
2016-04-15T00:26:29.168Z,1008.71
2016-04-15T00:27:29.186Z,1008.68
2016-04-15T00:28:41.938Z,1008.68
2016-04-15T00:29:29.285Z,1008.65
2016-04-15T00:30:54.912Z,1008.67
2016-04-15T00:31:48.462Z,1008.61
2016-04-15T00:32:29.263Z,1008.6
2016-04-15T00:34:29.299Z,1008.6
2016-04-15T00:35:29.310Z,1008.58
2016-04-15T00:36:29.343Z,1008.59
2016-04-15T00:37:29.346Z,1008.56
2016-04-15T00:38:48.567Z,1008.59
2016-04-15T00:39:32.476Z,1008.55
2016-04-15T00:40:58.166Z,1008.5
2016-04-15T00:41:32.497Z,1008.45
2016-04-15T00:42:32.531Z,1008.45
2016-04-15T00:43:47.767Z,1008.41
2016-04-15T00:44:47.817Z,1008.38
2016-04-15T00:46:00.523Z,1008.35
2016-04-15T00:46:47.807Z,1008.4
2016-04-15T00:47:47.826Z,1008.31
2016-04-15T00:48:47.845Z,1008.32
2016-04-15T00:49:47.862Z,1008.29
2016-04-15T00:50:47.881Z,1008.28
2016-04-15T00:51:47.884Z,1008.28
2016-04-15T00:52:47.902Z,1008.25
2016-04-15T00:53:47.920Z,1008.26
2016-04-15T00:54:47.938Z,1008.23
2016-04-15T00:55:47.956Z,1008.19
2016-04-15T00:56:48.021Z,1008.15
2016-04-15T00:57:47.993Z,1008.14
2016-04-15T00:58:47.996Z,1008.13
2016-04-15T00:59:48.013Z,1008.08
2016-04-15T01:01:00.766Z,1008.12
2016-04-15T01:01:48.035Z,1008.08
2016-04-15T01:03:07.275Z,1008.08
2016-04-15T01:03:51.150Z,1008.04
2016-04-15T01:05:16.843Z,1008.05
2016-04-15T01:06:00.702Z,1007.99
2016-04-15T01:07:26.395Z,1008.05
2016-04-15T01:08:00.738Z,1008.03
2016-04-15T01:09:00.757Z,1008.02
2016-04-15T01:10:00.776Z,1007.97
2016-04-15T01:11:00.793Z,1007.99
2016-04-15T01:12:13.548Z,1007.95
2016-04-15T01:13:00.814Z,1007.92
2016-04-15T01:14:00.833Z,1007.87
2016-04-15T01:15:20.056Z,1007.87
2016-04-15T01:16:00.869Z,1007.88
2016-04-15T01:17:00.873Z,1007.87
2016-04-15T01:18:13.628Z,1007.87
2016-04-15T01:19:01.518Z,1007.86
2016-04-15T01:20:00.928Z,1007.87
2016-04-15T01:22:00.964Z,1007.85
2016-04-15T01:23:00.982Z,1007.82
2016-04-15T01:24:00.985Z,1007.8
2016-04-15T01:25:01.003Z,1007.75
2016-04-15T01:26:01.021Z,1007.74
2016-04-15T01:27:01.040Z,1007.68
2016-04-15T01:28:01.074Z,1007.66
2016-04-15T01:29:01.077Z,1007.71
2016-04-15T01:30:01.095Z,1007.7
2016-04-15T01:31:01.097Z,1007.67
2016-04-15T01:32:01.132Z,1007.66
2016-04-15T01:33:26.808Z,1007.65
2016-04-15T01:34:01.152Z,1007.64
2016-04-15T01:35:01.171Z,1007.61
2016-04-15T01:36:01.189Z,1007.63
2016-04-15T01:37:01.191Z,1007.63
2016-04-15T01:38:01.210Z,1007.66
2016-04-15T01:39:01.228Z,1007.61
2016-04-15T01:40:01.246Z,1007.59
2016-04-15T01:41:01.265Z,1007.59
2016-04-15T01:42:01.283Z,1007.56
2016-04-15T01:43:01.302Z,1007.5
2016-04-15T01:44:01.320Z,1007.5
2016-04-15T01:45:01.323Z,1007.47
2016-04-15T01:46:01.373Z,1007.46
2016-04-15T01:47:01.359Z,1007.5
2016-04-15T01:48:01.378Z,1007.43
2016-04-15T01:49:01.380Z,1007.41
2016-04-15T01:50:01.398Z,1007.39
2016-04-15T01:51:01.433Z,1007.38
2016-04-15T01:52:01.450Z,1007.36
2016-04-15T01:53:01.469Z,1007.33
2016-04-15T01:54:01.471Z,1007.33
2016-04-15T01:55:01.677Z,1007.34
2016-04-15T01:56:07.776Z,1007.36
2016-04-15T01:57:01.526Z,1007.41
2016-04-15T01:58:01.545Z,1007.38
2016-04-15T01:59:01.547Z,1007.34
2016-04-15T02:00:01.566Z,1007.31
2016-04-15T02:01:14.322Z,1007.26
2016-04-15T02:02:01.603Z,1007.23
2016-04-15T02:03:01.605Z,1007.26
2016-04-15T02:04:01.624Z,1007.18
2016-04-15T02:05:01.657Z,1007.18
2016-04-15T02:06:01.660Z,1007.17
2016-04-15T02:07:14.416Z,1007.15
2016-04-15T02:08:01.697Z,1007.1
2016-04-15T02:09:01.716Z,1007.12
2016-04-15T02:10:20.940Z,1007.06
2016-04-15T02:12:36.945Z,1007.03
2016-04-15T02:13:11.276Z,1007.02
2016-04-15T02:14:11.293Z,1006.99
2016-04-15T02:15:17.593Z,1006.95
2016-04-15T02:16:11.331Z,1006.94
2016-04-15T02:17:11.348Z,1006.92
2016-04-15T02:18:11.367Z,1006.89
2016-04-15T02:19:11.369Z,1006.84
2016-04-15T02:20:11.388Z,1006.86
2016-04-15T02:21:11.406Z,1006.8
2016-04-15T02:22:11.424Z,1006.78
2016-04-15T02:23:11.443Z,1006.77
2016-04-15T02:24:11.461Z,1006.8
2016-04-15T02:25:11.480Z,1006.72
2016-04-15T02:26:11.498Z,1006.72
2016-04-15T02:27:11.516Z,1006.71
2016-04-15T02:28:11.535Z,1006.66
2016-04-15T02:29:11.538Z,1006.68
2016-04-15T02:30:11.555Z,1006.65
2016-04-15T02:31:11.574Z,1006.62
2016-04-15T02:32:11.592Z,1006.56
2016-04-15T02:33:11.610Z,1006.54
2016-04-15T02:34:11.613Z,1006.5
2016-04-15T02:35:11.631Z,1006.49
2016-04-15T02:36:11.649Z,1006.49
2016-04-15T02:37:11.668Z,1006.46
2016-04-15T02:38:11.687Z,1006.45
2016-04-15T02:39:24.440Z,1006.47
2016-04-15T02:40:11.723Z,1006.45
2016-04-15T02:41:11.726Z,1006.42
2016-04-15T02:42:11.744Z,1006.37
2016-04-15T02:43:11.762Z,1006.35
2016-04-15T02:44:11.781Z,1006.34
2016-04-15T02:45:11.798Z,1006.32
2016-04-15T02:46:11.817Z,1006.32
2016-04-15T02:47:11.836Z,1006.28
2016-04-15T02:48:11.854Z,1006.28
2016-04-15T02:49:11.857Z,1006.23
2016-04-15T02:50:13.298Z,1006.22
2016-04-15T02:51:13.315Z,1006.17
2016-04-15T02:52:11.912Z,1006.12
2016-04-15T02:53:11.931Z,1006.15
2016-04-15T02:54:11.948Z,1006.12
2016-04-15T02:55:11.967Z,1006.14
2016-04-15T02:56:11.985Z,1006.25
2016-04-15T02:57:13.409Z,1006.13
2016-04-15T02:58:12.006Z,1006.08
2016-04-15T02:59:12.039Z,1006.05
2016-04-15T03:00:12.042Z,1006.08
2016-04-15T03:01:12.061Z,1006.05
2016-04-15T03:02:12.095Z,1006.06
2016-04-15T03:03:12.097Z,1006.04
2016-04-15T03:04:12.116Z,1006.04
2016-04-15T03:05:12.119Z,1006.02
2016-04-15T03:06:12.152Z,1006.02
2016-04-15T03:07:12.155Z,1005.99
2016-04-15T03:08:12.174Z,1006.02
2016-04-15T03:09:12.801Z,1005.97
2016-04-15T03:10:12.210Z,1005.92
2016-04-15T03:11:12.837Z,1005.95
2016-04-15T03:13:27.562Z,1005.91
2016-04-15T03:14:27.579Z,1005.85
2016-04-15T03:15:27.598Z,1005.86
2016-04-15T03:16:27.820Z,1005.83
2016-04-15T03:17:33.884Z,1005.82
2016-04-15T03:18:27.637Z,1005.79
2016-04-15T03:19:27.656Z,1005.78
2016-04-15T03:20:27.675Z,1005.78
2016-04-15T03:21:40.428Z,1005.74
2016-04-15T03:22:27.898Z,1005.73
2016-04-15T03:23:27.729Z,1005.7
2016-04-15T03:24:27.748Z,1005.72
2016-04-15T03:25:53.438Z,1005.69
2016-04-15T03:26:37.394Z,1005.66
2016-04-15T03:27:37.411Z,1005.65
2016-04-15T03:28:50.164Z,1005.62
2016-04-15T03:29:37.464Z,1005.65
2016-04-15T03:31:03.142Z,1005.67
2016-04-15T03:31:47.033Z,1005.67
2016-04-15T03:32:47.050Z,1005.67
2016-04-15T03:33:47.085Z,1005.64
2016-04-15T03:35:15.824Z,1005.61
2016-04-15T03:36:18.905Z,1005.59
2016-04-15T03:37:18.938Z,1005.56
2016-04-15T03:38:18.957Z,1005.51
2016-04-15T03:39:38.163Z,1005.5
2016-04-15T03:40:22.041Z,1005.45
2016-04-15T03:41:41.246Z,1005.51
2016-04-15T03:42:25.109Z,1005.45
2016-04-15T03:43:25.112Z,1005.47
2016-04-15T03:44:25.129Z,1005.44
2016-04-15T03:45:25.210Z,1005.43
2016-04-15T03:46:25.166Z,1005.42
2016-04-15T03:47:25.185Z,1005.41
2016-04-15T03:48:25.218Z,1005.35
2016-04-15T03:49:25.221Z,1005.35
2016-04-15T03:50:25.239Z,1005.31
2016-04-15T03:51:44.461Z,1005.3
2016-04-15T03:52:28.323Z,1005.26
2016-04-15T03:53:47.544Z,1005.23
2016-04-15T03:54:31.406Z,1005.29
2016-04-15T03:55:57.097Z,1005.22
2016-04-15T03:56:31.442Z,1005.2
2016-04-15T03:58:05.838Z,1005.16
2016-04-15T03:59:05.857Z,1005.12
2016-04-15T04:00:18.610Z,1005.1
2016-04-15T04:01:05.878Z,1005.11
2016-04-15T04:02:25.100Z,1005.11
2016-04-15T04:03:05.915Z,1005.08
2016-04-15T04:04:31.605Z,1005.08
2016-04-15T04:05:05.952Z,1005.07
2016-04-15T04:07:24.191Z,1004.96
2016-04-15T04:08:21.179Z,1004.95
2016-04-15T04:09:21.196Z,1004.95
2016-04-15T04:10:46.871Z,1004.98
2016-04-15T04:11:30.765Z,1004.97
2016-04-15T04:12:30.799Z,1004.96
2016-04-15T04:15:11.463Z,1004.89
2016-04-15T04:17:21.031Z,1004.87
2016-04-15T04:18:14.784Z,1004.87
2016-04-15T04:19:14.801Z,1004.84
2016-04-15T04:20:21.070Z,1004.84
2016-04-15T04:21:34.042Z,1004.82
2016-04-15T04:22:14.856Z,1004.87
2016-04-15T04:23:14.859Z,1004.8
2016-04-15T04:24:24.439Z,1004.77
2016-04-15T04:25:24.442Z,1004.78
2016-04-15T04:26:37.195Z,1004.75
2016-04-15T04:27:24.495Z,1004.77
2016-04-15T04:28:50.233Z,1004.72
2016-04-15T04:29:37.251Z,1004.73
2016-04-15T04:30:24.581Z,1004.7
2016-04-15T04:31:37.287Z,1004.69
2016-04-15T04:32:24.572Z,1004.65
2016-04-15T04:33:24.589Z,1004.66
2016-04-15T04:34:24.592Z,1004.7
2016-04-15T04:35:24.626Z,1004.7
2016-04-15T04:36:24.644Z,1004.63
2016-04-15T04:37:24.788Z,1004.7
2016-04-15T04:38:30.946Z,1004.62
2016-04-15T04:39:24.715Z,1004.65
2016-04-15T04:40:24.701Z,1004.69
2016-04-15T04:41:24.720Z,1004.73
2016-04-15T04:42:37.473Z,1004.69
2016-04-15T04:43:24.757Z,1004.68
2016-04-15T04:44:24.776Z,1004.67
2016-04-15T04:45:24.856Z,1004.7
2016-04-15T04:46:25.031Z,1004.66
2016-04-15T04:47:50.502Z,1004.58
2016-04-15T04:48:34.364Z,1004.61
2016-04-15T04:49:34.382Z,1004.55
2016-04-15T04:50:47.150Z,1004.54
2016-04-15T04:51:34.435Z,1004.46
2016-04-15T04:52:47.181Z,1004.45
2016-04-15T04:53:53.657Z,1004.4
2016-04-15T04:54:34.480Z,1004.34
2016-04-15T04:55:35.698Z,1004.38
2016-04-15T04:56:34.498Z,1004.33
2016-04-15T04:57:34.531Z,1004.31
2016-04-15T04:58:35.144Z,1004.32
2016-04-15T04:59:53.772Z,1004.32
2016-04-15T05:00:37.806Z,1004.3
2016-04-15T05:02:03.483Z,1004.34
2016-04-15T05:02:47.358Z,1004.29
2016-04-15T05:03:56.923Z,1004.32
2016-04-15T05:04:56.941Z,1004.31
2016-04-15T05:05:56.960Z,1004.33
2016-04-15T05:06:56.977Z,1004.32
2016-04-15T05:07:56.996Z,1004.35
2016-04-15T05:09:06.641Z,1004.35
2016-04-15T05:10:29.364Z,1004.4
2016-04-15T05:11:46.022Z,1004.35
2016-04-15T05:12:46.119Z,1004.4
2016-04-15T05:13:46.044Z,1004.43
2016-04-15T05:14:46.124Z,1004.48
2016-04-15T05:15:46.080Z,1004.44
2016-04-15T05:16:58.833Z,1004.41
2016-04-15T05:17:52.382Z,1004.38
2016-04-15T05:19:11.809Z,1004.37
2016-04-15T05:20:08.421Z,1004.34
2016-04-15T05:21:08.456Z,1004.3
2016-04-15T05:22:08.520Z,1004.34
2016-04-15T05:23:08.492Z,1004.33
2016-04-15T05:24:08.511Z,1004.34
2016-04-15T05:25:08.528Z,1004.29
2016-04-15T05:26:08.531Z,1004.32
2016-04-15T05:27:08.565Z,1004.25
2016-04-15T05:28:08.584Z,1004.25
2016-04-15T05:29:08.587Z,1004.24
2016-04-15T05:30:08.605Z,1004.26
2016-04-15T05:31:08.639Z,1004.29
2016-04-15T05:32:08.641Z,1004.29
2016-04-15T05:33:08.660Z,1004.28
2016-04-15T05:34:08.725Z,1004.3
2016-04-15T05:35:08.711Z,1004.25
2016-04-15T05:36:08.715Z,1004.23
2016-04-15T05:37:08.733Z,1004.22
2016-04-15T05:38:08.767Z,1004.17
2016-04-15T05:39:08.770Z,1004.17
2016-04-15T05:40:08.788Z,1004.14
2016-04-15T05:41:08.807Z,1004.12
2016-04-15T05:42:08.824Z,1004.11
2016-04-15T05:43:08.843Z,1004.08
2016-04-15T05:44:08.861Z,1004.07
2016-04-15T05:45:08.879Z,1004.07
2016-04-15T05:46:08.898Z,1004.07
2016-04-15T05:47:08.916Z,1004.07
2016-04-15T05:48:08.918Z,1004.06
2016-04-15T05:49:08.937Z,1003.99
2016-04-15T05:50:08.971Z,1004.02
2016-04-15T05:51:08.989Z,1004.02
2016-04-15T05:52:09.008Z,1004
2016-04-15T05:53:09.010Z,1004.01
2016-04-15T05:54:09.029Z,1003.96
2016-04-15T05:55:09.063Z,1003.98
2016-04-15T05:56:09.081Z,1004
2016-04-15T05:57:09.084Z,1003.98
2016-04-15T05:58:09.102Z,1003.91
2016-04-15T05:59:09.120Z,1003.9
2016-04-15T06:00:09.139Z,1003.93
2016-04-15T06:01:09.156Z,1003.86
2016-04-15T06:02:09.175Z,1003.8
2016-04-15T06:03:09.193Z,1003.85
2016-04-15T06:04:21.946Z,1003.79
2016-04-15T06:05:09.230Z,1003.8
2016-04-15T06:06:09.248Z,1003.86
2016-04-15T06:07:09.266Z,1003.84
2016-04-15T06:08:09.285Z,1003.81
2016-04-15T06:09:09.303Z,1003.79
2016-04-15T06:10:09.322Z,1003.81
2016-04-15T06:11:22.075Z,1003.77
2016-04-15T06:12:09.358Z,1003.75
2016-04-15T06:13:38.205Z,1003.79
2016-04-15T06:14:44.316Z,1003.78
2016-04-15T06:15:53.976Z,1003.76
2016-04-15T06:16:37.916Z,1003.75
2016-04-15T06:17:57.137Z,1003.73
2016-04-15T06:19:06.627Z,1003.77
2016-04-15T06:20:06.646Z,1003.77
2016-04-15T06:21:19.388Z,1003.77
2016-04-15T06:22:06.767Z,1003.79
2016-04-15T06:23:25.895Z,1003.77
2016-04-15T06:24:22.523Z,1003.72
2016-04-15T06:25:22.541Z,1003.71
2016-04-15T06:26:41.762Z,1003.7
2016-04-15T06:27:22.593Z,1003.76
2016-04-15T06:28:48.272Z,1003.75
2016-04-15T06:29:41.931Z,1003.74
2016-04-15T06:30:48.309Z,1003.74
2016-04-15T06:31:58.093Z,1003.76
2016-04-15T06:33:10.849Z,1003.75
2016-04-15T06:34:04.414Z,1003.69
2016-04-15T06:35:17.479Z,1003.73
2016-04-15T06:36:17.388Z,1003.72
2016-04-15T06:38:13.393Z,1003.66
2016-04-15T06:39:13.396Z,1003.67
2016-04-15T06:40:13.414Z,1003.65
2016-04-15T06:41:13.432Z,1003.67
2016-04-15T06:42:39.123Z,1003.65
2016-04-15T06:43:23.000Z,1003.68
2016-04-15T06:44:23.018Z,1003.7
2016-04-15T06:45:48.708Z,1003.69
2016-04-15T06:47:23.089Z,1003.67
2016-04-15T06:48:23.122Z,1003.64
2016-04-15T06:49:23.142Z,1003.62
2016-04-15T06:50:29.425Z,1003.61
2016-04-15T06:51:29.428Z,1003.56
2016-04-15T06:52:42.400Z,1003.57
2016-04-15T06:53:29.480Z,1003.56
2016-04-15T06:54:48.905Z,1003.58
2016-04-15T06:55:23.251Z,1003.57
2016-04-15T06:57:54.319Z,1003.55
2016-04-15T06:58:41.525Z,1003.54
2016-04-15T07:00:00.747Z,1003.56
2016-04-15T07:00:47.828Z,1003.52
2016-04-15T07:01:41.596Z,1003.52
2016-04-15T07:02:51.192Z,1003.51
2016-04-15T07:03:51.194Z,1003.5
2016-04-15T07:04:51.229Z,1003.49
2016-04-15T07:05:57.513Z,1003.52
2016-04-15T07:06:51.265Z,1003.51
2016-04-15T07:07:51.299Z,1003.5
2016-04-15T07:08:51.302Z,1003.49
2016-04-15T07:09:51.523Z,1003.45
2016-04-15T07:10:51.338Z,1003.45
2016-04-15T07:11:51.356Z,1003.46
2016-04-15T07:12:51.390Z,1003.43
2016-04-15T07:13:51.409Z,1003.46
2016-04-15T07:14:51.412Z,1003.48
2016-04-15T07:15:51.446Z,1003.46
2016-04-15T07:16:57.729Z,1003.42
2016-04-15T07:17:51.498Z,1003.42
2016-04-15T07:18:51.501Z,1003.44
2016-04-15T07:19:51.520Z,1003.42
2016-04-15T07:20:51.537Z,1003.4
2016-04-15T07:21:51.544Z,1003.4
2016-04-15T07:22:51.563Z,1003.38
2016-04-15T07:23:51.582Z,1003.36
2016-04-15T07:24:53.021Z,1003.37
2016-04-15T07:26:10.839Z,1003.35
2016-04-15T07:26:51.651Z,1003.4
2016-04-15T07:27:51.675Z,1003.34
2016-04-15T07:29:04.431Z,1003.34
2016-04-15T07:29:51.712Z,1003.35
2016-04-15T07:31:10.937Z,1003.4
2016-04-15T07:31:53.155Z,1003.31
2016-04-15T07:32:51.767Z,1003.34
2016-04-15T07:33:51.785Z,1003.35
2016-04-15T07:34:53.225Z,1003.34
2016-04-15T07:36:02.931Z,1003.31
2016-04-15T07:37:02.950Z,1003.31
2016-04-15T07:38:02.967Z,1003.34
2016-04-15T07:39:02.986Z,1003.36
2016-04-15T07:40:03.020Z,1003.3
2016-04-15T07:41:03.022Z,1003.36
2016-04-15T07:42:15.450Z,1003.33
2016-04-15T07:43:12.437Z,1003.32
2016-04-15T07:44:12.472Z,1003.25
2016-04-15T07:45:12.489Z,1003.3
2016-04-15T07:46:25.227Z,1003.25
2016-04-15T07:47:12.510Z,1003.31
2016-04-15T07:48:12.528Z,1003.28
2016-04-15T07:49:12.563Z,1003.33
2016-04-15T07:50:12.580Z,1003.28
2016-04-15T07:51:12.615Z,1003.28
2016-04-15T07:52:12.617Z,1003.3
2016-04-15T07:53:12.635Z,1003.31
2016-04-15T07:54:12.654Z,1003.26
2016-04-15T07:55:18.937Z,1003.26
2016-04-15T07:56:12.707Z,1003.23
2016-04-15T07:57:12.724Z,1003.18
2016-04-15T07:58:12.727Z,1003.21
2016-04-15T07:59:12.745Z,1003.21
2016-04-15T08:00:12.764Z,1003.18
2016-04-15T08:01:12.782Z,1003.2
2016-04-15T08:02:12.815Z,1003.17
2016-04-15T08:03:12.834Z,1003.19
2016-04-15T08:04:32.056Z,1003.18
2016-04-15T08:05:12.871Z,1003.21
2016-04-15T08:06:12.890Z,1003.16
2016-04-15T08:07:22.471Z,1003.19
2016-04-15T08:08:22.489Z,1003.18
2016-04-15T08:09:22.492Z,1003.19
2016-04-15T08:10:22.525Z,1003.19
2016-04-15T08:11:22.544Z,1003.15
2016-04-15T08:12:22.562Z,1003.15
2016-04-15T08:13:22.580Z,1003.13
2016-04-15T08:14:22.598Z,1003.13
2016-04-15T08:15:22.663Z,1003.15
2016-04-15T08:16:22.651Z,1003.11
2016-04-15T08:17:22.669Z,1003.12
2016-04-15T08:18:22.672Z,1003.12
2016-04-15T08:19:22.706Z,1003.1
2016-04-15T08:20:22.708Z,1003.07
2016-04-15T08:21:22.733Z,1003.08
2016-04-15T08:22:22.767Z,1003.08
2016-04-15T08:23:22.784Z,1003.06
2016-04-15T08:24:22.803Z,1003.04
2016-04-15T08:25:22.805Z,1003.05
2016-04-15T08:26:24.261Z,1003.02
2016-04-15T08:27:22.858Z,1003.01
2016-04-15T08:28:25.938Z,1003.04
2016-04-15T08:29:25.958Z,1003.02
2016-04-15T08:30:38.710Z,1003.01
2016-04-15T08:31:26.015Z,1003
2016-04-15T08:32:26.060Z,1003.03
2016-04-15T08:33:26.136Z,1002.99
2016-04-15T08:34:26.181Z,1002.99
2016-04-15T08:35:38.992Z,1003.04
2016-04-15T08:36:26.316Z,1002.98
2016-04-15T08:37:52.021Z,1002.97
2016-04-15T08:38:26.383Z,1002.97
2016-04-15T08:39:26.417Z,1002.97
2016-04-15T08:40:26.466Z,1002.99
2016-04-15T08:41:26.483Z,1002.98
2016-04-15T08:42:26.506Z,1003
2016-04-15T08:43:26.530Z,1002.98
2016-04-15T08:44:26.570Z,1003
2016-04-15T08:45:26.594Z,1002.97
2016-04-15T08:46:26.742Z,1002.93
2016-04-15T08:47:26.637Z,1002.98
2016-04-15T08:48:26.766Z,1002.95
2016-04-15T08:49:26.693Z,1002.98
2016-04-15T08:50:26.697Z,1002.96
2016-04-15T08:51:26.733Z,1002.98
2016-04-15T08:52:26.753Z,1002.94
2016-04-15T08:53:26.772Z,1002.93
2016-04-15T08:54:26.791Z,1002.91
2016-04-15T08:55:26.810Z,1002.91
2016-04-15T08:56:26.844Z,1002.93
2016-04-15T08:57:26.863Z,1002.92
2016-04-15T08:58:33.163Z,1002.91
2016-04-15T08:59:26.901Z,1002.92
2016-04-15T09:00:26.934Z,1002.89
2016-04-15T09:01:39.687Z,1002.86
2016-04-15T09:02:39.706Z,1002.89
2016-04-15T09:03:52.724Z,1002.88
2016-04-15T09:04:46.212Z,1002.88
2016-04-15T09:05:30.121Z,1002.86
2016-04-15T09:06:30.139Z,1002.86
2016-04-15T09:07:30.157Z,1002.83
2016-04-15T09:08:30.175Z,1002.83
2016-04-15T09:09:30.209Z,1002.81
2016-04-15T09:10:30.228Z,1002.77
2016-04-15T09:11:30.245Z,1002.78
2016-04-15T09:12:30.264Z,1002.74
2016-04-15T09:13:30.282Z,1002.73
2016-04-15T09:14:36.582Z,1002.72
2016-04-15T09:15:43.100Z,1002.75
2016-04-15T09:16:43.088Z,1002.68
2016-04-15T09:17:49.575Z,1002.71
2016-04-15T09:18:55.702Z,1002.69
2016-04-15T09:19:52.705Z,1002.72
2016-04-15T09:20:52.723Z,1002.71
2016-04-15T09:21:52.741Z,1002.74
2016-04-15T09:22:52.760Z,1002.71
2016-04-15T09:23:59.044Z,1002.68
2016-04-15T09:24:52.796Z,1002.66
2016-04-15T09:26:05.568Z,1002.67
2016-04-15T09:26:59.115Z,1002.66
2016-04-15T09:28:18.541Z,1002.64
2016-04-15T09:29:02.448Z,1002.61
2016-04-15T09:30:28.204Z,1002.6
2016-04-15T09:31:12.112Z,1002.61
2016-04-15T09:32:21.709Z,1002.6
2016-04-15T09:33:47.367Z,1002.62
2016-04-15T09:34:22.307Z,1002.64
2016-04-15T09:35:25.373Z,1002.63
2016-04-15T09:36:25.423Z,1002.61
2016-04-15T09:37:26.832Z,1002.62
2016-04-15T09:38:38.178Z,1002.65
2016-04-15T09:39:25.462Z,1002.63
2016-04-15T09:40:25.480Z,1002.64
2016-04-15T09:41:25.514Z,1002.62
2016-04-15T09:42:25.533Z,1002.6
2016-04-15T09:43:25.550Z,1002.59
2016-04-15T09:44:25.569Z,1002.55
2016-04-15T09:45:38.336Z,1002.6
2016-04-15T09:47:35.155Z,1002.55
2016-04-15T09:49:35.192Z,1002.55
2016-04-15T09:50:35.210Z,1002.53
2016-04-15T09:51:35.244Z,1002.53
2016-04-15T09:52:35.262Z,1002.51
2016-04-15T09:53:41.546Z,1002.47
2016-04-15T09:54:48.049Z,1002.46
2016-04-15T09:55:48.068Z,1002.49
2016-04-15T09:56:35.352Z,1002.52
2016-04-15T09:57:35.370Z,1002.48
2016-04-15T09:58:35.388Z,1002.51
2016-04-15T09:59:39.344Z,1002.53
2016-04-15T10:00:39.362Z,1002.54
2016-04-15T10:01:42.552Z,1002.51
2016-04-15T10:02:42.476Z,1002.53
2016-04-15T10:03:43.917Z,1002.52
2016-04-15T10:04:42.513Z,1002.47
2016-04-15T10:05:55.265Z,1002.47
2016-04-15T10:07:01.753Z,1002.43
2016-04-15T10:07:42.584Z,1002.43
2016-04-15T10:09:11.340Z,1002.42
2016-04-15T10:10:11.358Z,1002.38
2016-04-15T10:11:11.392Z,1002.43
2016-04-15T10:12:11.409Z,1002.39
2016-04-15T10:13:11.428Z,1002.39
2016-04-15T10:14:24.181Z,1002.42
2016-04-15T10:15:17.730Z,1002.38
2016-04-15T10:16:24.217Z,1002.39
2016-04-15T10:17:11.501Z,1002.4
2016-04-15T10:18:11.519Z,1002.41
2016-04-15T10:19:24.288Z,1002.39
2016-04-15T10:20:12.978Z,1002.39
2016-04-15T10:21:28.184Z,1002.37
2016-04-15T10:22:28.202Z,1002.42
2016-04-15T10:23:40.955Z,1002.43
2016-04-15T10:24:28.238Z,1002.4
2016-04-15T10:25:28.257Z,1002.41
2016-04-15T10:26:41.026Z,1002.42
2016-04-15T10:27:34.575Z,1002.39
2016-04-15T10:28:47.532Z,1002.39
2016-04-15T10:29:28.347Z,1002.39
2016-04-15T10:31:49.602Z,1002.37
2016-04-15T10:32:49.604Z,1002.3
2016-04-15T10:33:49.623Z,1002.26
2016-04-15T10:34:49.640Z,1002.27
2016-04-15T10:36:08.881Z,1002.28
2016-04-15T10:37:05.508Z,1002.27
2016-04-15T10:38:11.996Z,1002.33
2016-04-15T10:39:27.311Z,1002.37
2016-04-15T10:40:27.329Z,1002.32
2016-04-15T10:41:36.941Z,1002.38
2016-04-15T10:42:36.959Z,1002.35
2016-04-15T10:43:36.993Z,1002.36
2016-04-15T10:44:49.730Z,1002.34
2016-04-15T10:45:37.623Z,1002.27
2016-04-15T10:46:37.047Z,1002.28
2016-04-15T10:47:40.144Z,1002.25
2016-04-15T10:49:05.837Z,1002.26
2016-04-15T10:49:49.727Z,1002.25
2016-04-15T10:50:49.747Z,1002.2
2016-04-15T10:51:49.764Z,1002.2
2016-04-15T10:52:49.799Z,1002.15
2016-04-15T10:53:59.348Z,1002.16
2016-04-15T10:54:59.366Z,1002.17
2016-04-15T10:55:59.400Z,1002.24
2016-04-15T10:56:59.419Z,1002.22
2016-04-15T10:57:59.453Z,1002.21
2016-04-15T10:59:05.724Z,1002.22
2016-04-15T10:59:59.490Z,1002.24
2016-04-15T11:00:59.508Z,1002.21
2016-04-15T11:01:59.527Z,1002.21
2016-04-15T11:02:59.544Z,1002.24
2016-04-15T11:03:59.579Z,1002.17
2016-04-15T11:04:59.596Z,1002.21
2016-04-15T11:05:59.631Z,1002.21
2016-04-15T11:07:12.370Z,1002.16
2016-04-15T11:07:59.682Z,1002.18
2016-04-15T11:09:18.907Z,1002.13
2016-04-15T11:10:00.329Z,1002.13
2016-04-15T11:10:59.738Z,1002.13
2016-04-15T11:11:59.772Z,1002.08
2016-04-15T11:12:59.806Z,1002.06
2016-04-15T11:13:59.809Z,1002.03
2016-04-15T11:14:59.826Z,1002
2016-04-15T11:15:59.861Z,1001.94
2016-04-15T11:17:00.503Z,1001.95
2016-04-15T11:17:59.913Z,1001.93
2016-04-15T11:18:59.930Z,1001.93
2016-04-15T11:20:25.639Z,1001.94
2016-04-15T11:21:35.220Z,1001.95
2016-04-15T11:22:35.255Z,1001.91
2016-04-15T11:23:35.288Z,1001.9
2016-04-15T11:24:35.291Z,1001.9
2016-04-15T11:25:35.309Z,1001.85
2016-04-15T11:26:48.077Z,1001.85
2016-04-15T11:27:35.361Z,1001.81
2016-04-15T11:28:54.599Z,1001.84
2016-04-15T11:29:35.414Z,1001.8
2016-04-15T11:31:44.982Z,1001.75
2016-04-15T11:32:45.079Z,1001.76
2016-04-15T11:33:45.018Z,1001.77
2016-04-15T11:34:45.052Z,1001.75
2016-04-15T11:35:45.087Z,1001.76
2016-04-15T11:36:57.823Z,1001.78
2016-04-15T11:37:45.123Z,1001.75
2016-04-15T11:38:45.140Z,1001.75
2016-04-15T11:39:45.160Z,1001.72
2016-04-15T11:40:45.178Z,1001.77
2016-04-15T11:41:45.196Z,1001.71
2016-04-15T11:42:45.230Z,1001.74
2016-04-15T11:43:57.983Z,1001.72
2016-04-15T11:44:45.267Z,1001.72
2016-04-15T11:45:45.300Z,1001.71
2016-04-15T11:46:45.319Z,1001.68
2016-04-15T11:47:45.337Z,1001.69
2016-04-15T11:48:45.355Z,1001.62
2016-04-15T11:49:45.374Z,1001.56
2016-04-15T11:50:45.408Z,1001.53
2016-04-15T11:51:45.425Z,1001.56
2016-04-15T11:52:45.444Z,1001.59
2016-04-15T11:53:45.478Z,1001.56
2016-04-15T11:54:45.496Z,1001.55
2016-04-15T11:55:45.515Z,1001.56
2016-04-15T11:56:45.549Z,1001.62
2016-04-15T11:57:45.552Z,1001.56
2016-04-15T11:58:45.586Z,1001.61
2016-04-15T11:59:45.604Z,1001.58
2016-04-15T12:00:58.372Z,1001.6
2016-04-15T12:01:45.656Z,1001.62
2016-04-15T12:03:04.971Z,1001.54
2016-04-15T12:03:48.879Z,1001.58
2016-04-15T12:04:48.914Z,1001.53
2016-04-15T12:05:48.932Z,1001.53
2016-04-15T12:06:48.951Z,1001.59
2016-04-15T12:07:48.984Z,1001.63
2016-04-15T12:08:49.004Z,1001.55
2016-04-15T12:09:49.023Z,1001.54
2016-04-15T12:10:49.058Z,1001.54
2016-04-15T12:11:49.076Z,1001.54
2016-04-15T12:12:49.109Z,1001.53
2016-04-15T12:14:01.862Z,1001.53
2016-04-15T12:14:49.146Z,1001.51
2016-04-15T12:15:49.180Z,1001.47
2016-04-15T12:16:49.198Z,1001.48
2016-04-15T12:17:49.233Z,1001.48
2016-04-15T12:19:14.941Z,1001.46
2016-04-15T12:19:55.550Z,1001.44
2016-04-15T12:20:49.303Z,1001.47
2016-04-15T12:21:49.337Z,1001.48
2016-04-15T12:22:49.355Z,1001.48
2016-04-15T12:23:49.373Z,1001.4
2016-04-15T12:24:49.610Z,1001.43
2016-04-15T12:25:49.420Z,1001.43
2016-04-15T12:27:04.656Z,1001.37
2016-04-15T12:28:04.690Z,1001.38
2016-04-15T12:29:04.709Z,1001.37
2016-04-15T12:30:04.743Z,1001.4
2016-04-15T12:31:04.762Z,1001.37
2016-04-15T12:32:17.533Z,1001.29
2016-04-15T12:33:04.814Z,1001.33
2016-04-15T12:34:04.847Z,1001.32
2016-04-15T12:35:04.866Z,1001.3
2016-04-15T12:36:04.884Z,1001.32
2016-04-15T12:37:04.919Z,1001.36